sensor_id;sensor_type;location;lat;lon;timestamp;P1;durP1;ratioP1;P2;durP2;ratioP2
80313;SDS011;69628;47.516;18.828;2023-05-07T00:00:31;13.32;;;6.88;;
80313;SDS011;69628;47.516;18.828;2023-05-07T00:01:33;8.80;;;6.13;;
80313;SDS011;69628;47.516;18.828;2023-05-07T00:02:34;9.80;;;6.53;;
80313;SDS011;69628;47.516;18.828;2023-05-07T00:03:35;10.20;;;6.97;;
80313;SDS011;69628;47.516;18.828;2023-05-07T00:04:36;10.48;;;6.15;;
80313;SDS011;69628;47.516;18.828;2023-05-07T00:05:39;9.07;;;6.13;;
80313;SDS011;69628;47.516;18.828;2023-05-07T00:06:39;8.73;;;6.15;;
80313;SDS011;69628;47.516;18.828;2023-05-07T00:07:40;11.68;;;6.45;;
80313;SDS011;69628;47.516;18.828;2023-05-07T00:08:42;14.20;;;7.00;;
80313;SDS011;69628;47.516;18.828;2023-05-07T00:09:42;10.73;;;6.70;;
80313;SDS011;69628;47.516;18.828;2023-05-07T00:10:42;8.73;;;6.82;;
80313;SDS011;69628;47.516;18.828;2023-05-07T00:11:43;8.63;;;6.18;;
80313;SDS011;69628;47.516;18.828;2023-05-07T00:12:43;9.32;;;6.45;;
80313;SDS011;69628;47.516;18.828;2023-05-07T00:13:44;8.70;;;5.93;;
80313;SDS011;69628;47.516;18.828;2023-05-07T00:14:44;8.95;;;6.25;;
80313;SDS011;69628;47.516;18.828;2023-05-07T00:15:45;9.48;;;6.65;;
80313;SDS011;69628;47.516;18.828;2023-05-07T00:16:46;8.73;;;6.28;;
80313;SDS011;69628;47.516;18.828;2023-05-07T00:19:00;11.70;;;6.57;;
80313;SDS011;69628;47.516;18.828;2023-05-07T00:20:01;9.20;;;6.30;;
80313;SDS011;69628;47.516;18.828;2023-05-07T00:21:03;12.13;;;6.88;;
80313;SDS011;69628;47.516;18.828;2023-05-07T00:22:03;9.90;;;6.55;;
80313;SDS011;69628;47.516;18.828;2023-05-07T00:23:04;10.15;;;6.47;;
80313;SDS011;69628;47.516;18.828;2023-05-07T00:24:04;13.93;;;6.78;;
80313;SDS011;69628;47.516;18.828;2023-05-07T00:25:05;9.52;;;6.38;;
80313;SDS011;69628;47.516;18.828;2023-05-07T00:26:05;8.13;;;5.55;;
80313;SDS011;69628;47.516;18.828;2023-05-07T00:27:06;8.68;;;5.88;;
80313;SDS011;69628;47.516;18.828;2023-05-07T00:28:06;8.85;;;5.57;;
80313;SDS011;69628;47.516;18.828;2023-05-07T00:29:06;9.02;;;5.18;;
80313;SDS011;69628;47.516;18.828;2023-05-07T00:30:07;9.23;;;5.13;;
80313;SDS011;69628;47.516;18.828;2023-05-07T00:31:08;10.70;;;4.97;;
80313;SDS011;69628;47.516;18.828;2023-05-07T00:32:11;8.73;;;4.93;;
80313;SDS011;69628;47.516;18.828;2023-05-07T00:33:12;13.45;;;5.28;;
80313;SDS011;69628;47.516;18.828;2023-05-07T00:34:12;11.88;;;5.03;;
80313;SDS011;69628;47.516;18.828;2023-05-07T00:35:12;8.63;;;4.88;;
80313;SDS011;69628;47.516;18.828;2023-05-07T00:36:13;8.15;;;4.60;;
80313;SDS011;69628;47.516;18.828;2023-05-07T00:37:13;7.32;;;4.30;;
80313;SDS011;69628;47.516;18.828;2023-05-07T00:38:14;12.98;;;4.65;;
80313;SDS011;69628;47.516;18.828;2023-05-07T00:39:14;7.75;;;4.30;;
80313;SDS011;69628;47.516;18.828;2023-05-07T00:40:15;7.75;;;4.72;;
80313;SDS011;69628;47.516;18.828;2023-05-07T00:41:15;8.55;;;4.50;;
80313;SDS011;69628;47.516;18.828;2023-05-07T00:42:16;7.35;;;4.60;;
80313;SDS011;69628;47.516;18.828;2023-05-07T00:43:16;9.82;;;5.05;;
80313;SDS011;69628;47.516;18.828;2023-05-07T00:44:26;5.80;;;4.22;;
80313;SDS011;69628;47.516;18.828;2023-05-07T00:45:26;9.00;;;4.95;;
80313;SDS011;69628;47.516;18.828;2023-05-07T00:46:28;8.98;;;5.00;;
80313;SDS011;69628;47.516;18.828;2023-05-07T00:47:29;9.43;;;4.60;;
80313;SDS011;69628;47.516;18.828;2023-05-07T00:48:30;9.45;;;4.82;;
80313;SDS011;69628;47.516;18.828;2023-05-07T00:49:41;9.65;;;5.35;;
80313;SDS011;69628;47.516;18.828;2023-05-07T00:50:42;8.88;;;4.88;;
80313;SDS011;69628;47.516;18.828;2023-05-07T00:51:43;10.55;;;5.40;;
80313;SDS011;69628;47.516;18.828;2023-05-07T00:52:44;7.70;;;4.63;;
80313;SDS011;69628;47.516;18.828;2023-05-07T00:53:44;8.15;;;5.20;;
80313;SDS011;69628;47.516;18.828;2023-05-07T00:54:45;8.02;;;5.18;;
80313;SDS011;69628;47.516;18.828;2023-05-07T00:55:45;10.98;;;5.30;;
80313;SDS011;69628;47.516;18.828;2023-05-07T00:56:46;8.13;;;4.65;;
80313;SDS011;69628;47.516;18.828;2023-05-07T00:57:46;10.80;;;5.13;;
80313;SDS011;69628;47.516;18.828;2023-05-07T00:58:47;8.57;;;5.07;;
80313;SDS011;69628;47.516;18.828;2023-05-07T00:59:48;8.82;;;4.93;;
80313;SDS011;69628;47.516;18.828;2023-05-07T01:00:48;9.45;;;4.75;;
80313;SDS011;69628;47.516;18.828;2023-05-07T01:01:48;6.53;;;5.03;;
80313;SDS011;69628;47.516;18.828;2023-05-07T01:03:51;11.82;;;5.32;;
80313;SDS011;69628;47.516;18.828;2023-05-07T01:04:51;8.82;;;5.57;;
80313;SDS011;69628;47.516;18.828;2023-05-07T01:05:52;8.75;;;5.63;;
80313;SDS011;69628;47.516;18.828;2023-05-07T01:06:54;7.47;;;5.53;;
80313;SDS011;69628;47.516;18.828;2023-05-07T01:07:56;8.45;;;4.93;;
80313;SDS011;69628;47.516;18.828;2023-05-07T01:08:57;8.65;;;5.70;;
80313;SDS011;69628;47.516;18.828;2023-05-07T01:09:58;8.45;;;5.25;;
80313;SDS011;69628;47.516;18.828;2023-05-07T01:10:58;8.32;;;5.60;;
80313;SDS011;69628;47.516;18.828;2023-05-07T01:11:59;7.30;;;5.90;;
80313;SDS011;69628;47.516;18.828;2023-05-07T01:13:00;9.25;;;5.40;;
80313;SDS011;69628;47.516;18.828;2023-05-07T01:14:00;11.80;;;5.65;;
80313;SDS011;69628;47.516;18.828;2023-05-07T01:15:02;14.95;;;6.00;;
80313;SDS011;69628;47.516;18.828;2023-05-07T01:16:08;10.05;;;5.57;;
80313;SDS011;69628;47.516;18.828;2023-05-07T01:17:29;7.85;;;5.68;;
80313;SDS011;69628;47.516;18.828;2023-05-07T01:18:29;8.30;;;5.65;;
80313;SDS011;69628;47.516;18.828;2023-05-07T01:19:30;8.10;;;5.25;;
80313;SDS011;69628;47.516;18.828;2023-05-07T01:20:34;9.23;;;5.28;;
80313;SDS011;69628;47.516;18.828;2023-05-07T01:21:45;7.93;;;5.53;;
80313;SDS011;69628;47.516;18.828;2023-05-07T01:22:47;7.63;;;5.75;;
80313;SDS011;69628;47.516;18.828;2023-05-07T01:23:51;9.32;;;5.68;;
80313;SDS011;69628;47.516;18.828;2023-05-07T01:25:00;9.05;;;5.50;;
80313;SDS011;69628;47.516;18.828;2023-05-07T01:26:01;11.07;;;5.45;;
80313;SDS011;69628;47.516;18.828;2023-05-07T01:27:02;7.93;;;5.10;;
80313;SDS011;69628;47.516;18.828;2023-05-07T01:28:02;10.30;;;5.63;;
80313;SDS011;69628;47.516;18.828;2023-05-07T01:29:03;13.15;;;6.18;;
80313;SDS011;69628;47.516;18.828;2023-05-07T01:30:06;10.32;;;5.55;;
80313;SDS011;69628;47.516;18.828;2023-05-07T01:31:07;9.27;;;5.45;;
80313;SDS011;69628;47.516;18.828;2023-05-07T01:32:08;13.38;;;5.88;;
80313;SDS011;69628;47.516;18.828;2023-05-07T01:33:09;8.63;;;4.78;;
80313;SDS011;69628;47.516;18.828;2023-05-07T01:34:11;12.20;;;5.65;;
80313;SDS011;69628;47.516;18.828;2023-05-07T01:35:14;9.05;;;5.13;;
80313;SDS011;69628;47.516;18.828;2023-05-07T01:36:18;11.02;;;5.40;;
80313;SDS011;69628;47.516;18.828;2023-05-07T01:37:20;9.15;;;5.13;;
80313;SDS011;69628;47.516;18.828;2023-05-07T01:38:21;9.32;;;5.28;;
80313;SDS011;69628;47.516;18.828;2023-05-07T01:39:23;14.20;;;5.32;;
80313;SDS011;69628;47.516;18.828;2023-05-07T01:40:24;8.70;;;5.90;;
80313;SDS011;69628;47.516;18.828;2023-05-07T01:41:25;11.48;;;5.72;;
80313;SDS011;69628;47.516;18.828;2023-05-07T01:42:26;9.30;;;5.53;;
80313;SDS011;69628;47.516;18.828;2023-05-07T01:43:26;8.98;;;5.68;;
80313;SDS011;69628;47.516;18.828;2023-05-07T01:44:28;8.63;;;5.63;;
80313;SDS011;69628;47.516;18.828;2023-05-07T01:45:29;13.38;;;5.43;;
80313;SDS011;69628;47.516;18.828;2023-05-07T01:46:31;12.50;;;5.53;;
80313;SDS011;69628;47.516;18.828;2023-05-07T01:47:32;9.15;;;5.40;;
80313;SDS011;69628;47.516;18.828;2023-05-07T01:48:32;7.82;;;5.75;;
80313;SDS011;69628;47.516;18.828;2023-05-07T01:49:33;9.70;;;6.00;;
80313;SDS011;69628;47.516;18.828;2023-05-07T01:50:34;10.20;;;6.05;;
80313;SDS011;69628;47.516;18.828;2023-05-07T01:51:35;9.80;;;5.45;;
80313;SDS011;69628;47.516;18.828;2023-05-07T01:52:37;7.18;;;5.38;;
80313;SDS011;69628;47.516;18.828;2023-05-07T01:53:38;9.50;;;5.25;;
80313;SDS011;69628;47.516;18.828;2023-05-07T01:54:40;7.53;;;5.15;;
80313;SDS011;69628;47.516;18.828;2023-05-07T01:55:40;7.50;;;5.15;;
80313;SDS011;69628;47.516;18.828;2023-05-07T01:56:41;8.43;;;5.10;;
80313;SDS011;69628;47.516;18.828;2023-05-07T01:57:41;10.75;;;4.90;;
80313;SDS011;69628;47.516;18.828;2023-05-07T01:58:42;6.90;;;4.32;;
80313;SDS011;69628;47.516;18.828;2023-05-07T01:59:44;9.18;;;4.88;;
80313;SDS011;69628;47.516;18.828;2023-05-07T02:00:55;7.95;;;5.22;;
80313;SDS011;69628;47.516;18.828;2023-05-07T02:01:55;6.68;;;5.38;;
80313;SDS011;69628;47.516;18.828;2023-05-07T02:02:55;6.90;;;4.93;;
80313;SDS011;69628;47.516;18.828;2023-05-07T02:03:56;6.05;;;4.78;;
80313;SDS011;69628;47.516;18.828;2023-05-07T02:04:56;7.35;;;5.15;;
80313;SDS011;69628;47.516;18.828;2023-05-07T02:05:57;8.57;;;5.78;;
80313;SDS011;69628;47.516;18.828;2023-05-07T02:06:57;7.43;;;5.35;;
80313;SDS011;69628;47.516;18.828;2023-05-07T02:07:58;7.20;;;4.93;;
80313;SDS011;69628;47.516;18.828;2023-05-07T02:08:58;8.95;;;5.53;;
80313;SDS011;69628;47.516;18.828;2023-05-07T02:09:58;12.27;;;5.72;;
80313;SDS011;69628;47.516;18.828;2023-05-07T02:10:59;13.52;;;6.00;;
80313;SDS011;69628;47.516;18.828;2023-05-07T02:11:59;12.50;;;6.55;;
80313;SDS011;69628;47.516;18.828;2023-05-07T02:13:00;12.13;;;6.18;;
80313;SDS011;69628;47.516;18.828;2023-05-07T02:14:12;9.13;;;5.72;;
80313;SDS011;69628;47.516;18.828;2023-05-07T02:15:13;11.15;;;6.28;;
80313;SDS011;69628;47.516;18.828;2023-05-07T02:16:13;11.50;;;6.30;;
80313;SDS011;69628;47.516;18.828;2023-05-07T02:17:14;13.48;;;5.80;;
80313;SDS011;69628;47.516;18.828;2023-05-07T02:18:15;11.63;;;5.68;;
80313;SDS011;69628;47.516;18.828;2023-05-07T02:19:16;9.13;;;5.57;;
80313;SDS011;69628;47.516;18.828;2023-05-07T02:20:17;8.82;;;5.55;;
80313;SDS011;69628;47.516;18.828;2023-05-07T02:21:17;8.32;;;5.38;;
80313;SDS011;69628;47.516;18.828;2023-05-07T02:22:18;7.25;;;5.40;;
80313;SDS011;69628;47.516;18.828;2023-05-07T02:23:18;7.88;;;5.45;;
80313;SDS011;69628;47.516;18.828;2023-05-07T02:24:18;10.57;;;5.60;;
80313;SDS011;69628;47.516;18.828;2023-05-07T02:25:19;8.77;;;5.43;;
80313;SDS011;69628;47.516;18.828;2023-05-07T02:26:19;9.18;;;5.20;;
80313;SDS011;69628;47.516;18.828;2023-05-07T02:27:30;10.80;;;5.85;;
80313;SDS011;69628;47.516;18.828;2023-05-07T02:28:30;12.05;;;5.70;;
80313;SDS011;69628;47.516;18.828;2023-05-07T02:29:31;7.82;;;5.60;;
80313;SDS011;69628;47.516;18.828;2023-05-07T02:30:31;7.50;;;5.07;;
80313;SDS011;69628;47.516;18.828;2023-05-07T02:31:32;7.95;;;4.97;;
80313;SDS011;69628;47.516;18.828;2023-05-07T02:32:33;7.45;;;5.53;;
80313;SDS011;69628;47.516;18.828;2023-05-07T02:33:34;7.10;;;5.47;;
80313;SDS011;69628;47.516;18.828;2023-05-07T02:34:35;7.28;;;5.78;;
80313;SDS011;69628;47.516;18.828;2023-05-07T02:35:36;11.55;;;5.10;;
80313;SDS011;69628;47.516;18.828;2023-05-07T02:36:36;12.05;;;5.65;;
80313;SDS011;69628;47.516;18.828;2023-05-07T02:37:37;8.95;;;5.50;;
80313;SDS011;69628;47.516;18.828;2023-05-07T02:38:37;6.63;;;4.78;;
80313;SDS011;69628;47.516;18.828;2023-05-07T02:39:37;8.60;;;5.40;;
80313;SDS011;69628;47.516;18.828;2023-05-07T02:40:47;9.13;;;5.38;;
80313;SDS011;69628;47.516;18.828;2023-05-07T02:41:47;7.45;;;5.38;;
80313;SDS011;69628;47.516;18.828;2023-05-07T02:42:47;7.00;;;5.00;;
80313;SDS011;69628;47.516;18.828;2023-05-07T02:43:48;6.88;;;5.25;;
80313;SDS011;69628;47.516;18.828;2023-05-07T02:44:48;8.40;;;5.25;;
80313;SDS011;69628;47.516;18.828;2023-05-07T02:45:49;8.40;;;5.88;;
80313;SDS011;69628;47.516;18.828;2023-05-07T02:46:49;9.20;;;5.53;;
80313;SDS011;69628;47.516;18.828;2023-05-07T02:47:49;8.25;;;5.13;;
80313;SDS011;69628;47.516;18.828;2023-05-07T02:48:50;8.55;;;5.20;;
80313;SDS011;69628;47.516;18.828;2023-05-07T02:49:50;10.68;;;5.53;;
80313;SDS011;69628;47.516;18.828;2023-05-07T02:50:51;9.80;;;5.65;;
80313;SDS011;69628;47.516;18.828;2023-05-07T02:51:51;8.02;;;5.25;;
80313;SDS011;69628;47.516;18.828;2023-05-07T02:52:51;11.30;;;5.38;;
80313;SDS011;69628;47.516;18.828;2023-05-07T02:54:02;8.93;;;5.38;;
80313;SDS011;69628;47.516;18.828;2023-05-07T02:55:03;9.85;;;5.60;;
80313;SDS011;69628;47.516;18.828;2023-05-07T02:56:03;9.02;;;4.85;;
80313;SDS011;69628;47.516;18.828;2023-05-07T02:57:05;12.00;;;5.13;;
80313;SDS011;69628;47.516;18.828;2023-05-07T02:58:06;7.70;;;4.65;;
80313;SDS011;69628;47.516;18.828;2023-05-07T02:59:06;10.90;;;4.40;;
80313;SDS011;69628;47.516;18.828;2023-05-07T03:00:25;7.70;;;4.05;;
80313;SDS011;69628;47.516;18.828;2023-05-07T03:01:25;8.35;;;4.30;;
80313;SDS011;69628;47.516;18.828;2023-05-07T03:02:25;9.85;;;4.40;;
80313;SDS011;69628;47.516;18.828;2023-05-07T03:03:26;10.77;;;4.15;;
80313;SDS011;69628;47.516;18.828;2023-05-07T03:04:26;13.52;;;4.63;;
80313;SDS011;69628;47.516;18.828;2023-05-07T03:05:26;14.88;;;4.75;;
80313;SDS011;69628;47.516;18.828;2023-05-07T03:06:27;9.95;;;4.32;;
80313;SDS011;69628;47.516;18.828;2023-05-07T03:07:27;11.65;;;4.50;;
80313;SDS011;69628;47.516;18.828;2023-05-07T03:08:28;8.50;;;4.32;;
80313;SDS011;69628;47.516;18.828;2023-05-07T03:09:28;9.25;;;4.45;;
80313;SDS011;69628;47.516;18.828;2023-05-07T03:10:28;9.98;;;4.45;;
80313;SDS011;69628;47.516;18.828;2023-05-07T03:11:29;8.15;;;4.47;;
80313;SDS011;69628;47.516;18.828;2023-05-07T03:12:29;7.03;;;3.92;;
80313;SDS011;69628;47.516;18.828;2023-05-07T03:13:30;6.75;;;4.00;;
80313;SDS011;69628;47.516;18.828;2023-05-07T03:14:30;6.63;;;3.90;;
80313;SDS011;69628;47.516;18.828;2023-05-07T03:15:31;8.07;;;4.13;;
80313;SDS011;69628;47.516;18.828;2023-05-07T03:18:43;20.05;;;9.57;;
80313;SDS011;69628;47.516;18.828;2023-05-07T03:19:44;18.67;;;9.10;;
80313;SDS011;69628;47.516;18.828;2023-05-07T03:20:53;17.15;;;9.00;;
80313;SDS011;69628;47.516;18.828;2023-05-07T03:21:54;13.82;;;6.43;;
80313;SDS011;69628;47.516;18.828;2023-05-07T03:22:55;7.43;;;4.97;;
80313;SDS011;69628;47.516;18.828;2023-05-07T03:23:55;9.00;;;5.03;;
80313;SDS011;69628;47.516;18.828;2023-05-07T03:24:56;8.50;;;5.00;;
80313;SDS011;69628;47.516;18.828;2023-05-07T03:25:56;10.07;;;5.65;;
80313;SDS011;69628;47.516;18.828;2023-05-07T03:26:57;8.02;;;5.00;;
80313;SDS011;69628;47.516;18.828;2023-05-07T03:27:57;9.05;;;5.15;;
80313;SDS011;69628;47.516;18.828;2023-05-07T03:28:58;9.88;;;4.70;;
80313;SDS011;69628;47.516;18.828;2023-05-07T03:29:58;10.25;;;5.07;;
80313;SDS011;69628;47.516;18.828;2023-05-07T03:30:58;7.70;;;4.70;;
80313;SDS011;69628;47.516;18.828;2023-05-07T03:31:59;15.95;;;4.97;;
80313;SDS011;69628;47.516;18.828;2023-05-07T03:32:59;7.15;;;4.30;;
80313;SDS011;69628;47.516;18.828;2023-05-07T03:34:00;9.07;;;4.60;;
80313;SDS011;69628;47.516;18.828;2023-05-07T03:35:00;9.88;;;4.60;;
80313;SDS011;69628;47.516;18.828;2023-05-07T03:36:01;8.48;;;4.80;;
80313;SDS011;69628;47.516;18.828;2023-05-07T03:37:01;7.72;;;4.55;;
80313;SDS011;69628;47.516;18.828;2023-05-07T03:38:02;10.88;;;4.50;;
80313;SDS011;69628;47.516;18.828;2023-05-07T03:39:02;7.13;;;4.38;;
80313;SDS011;69628;47.516;18.828;2023-05-07T03:40:03;9.85;;;4.30;;
80313;SDS011;69628;47.516;18.828;2023-05-07T03:41:03;8.25;;;4.07;;
80313;SDS011;69628;47.516;18.828;2023-05-07T03:42:04;8.65;;;4.20;;
80313;SDS011;69628;47.516;18.828;2023-05-07T03:44:31;7.10;;;4.10;;
80313;SDS011;69628;47.516;18.828;2023-05-07T03:45:31;5.80;;;3.97;;
80313;SDS011;69628;47.516;18.828;2023-05-07T03:46:32;5.32;;;3.78;;
80313;SDS011;69628;47.516;18.828;2023-05-07T03:47:33;8.57;;;3.97;;
80313;SDS011;69628;47.516;18.828;2023-05-07T03:48:34;5.95;;;3.75;;
80313;SDS011;69628;47.516;18.828;2023-05-07T03:49:34;6.85;;;3.85;;
80313;SDS011;69628;47.516;18.828;2023-05-07T03:50:34;4.72;;;3.63;;
80313;SDS011;69628;47.516;18.828;2023-05-07T03:51:35;6.95;;;3.72;;
80313;SDS011;69628;47.516;18.828;2023-05-07T03:52:36;5.93;;;3.97;;
80313;SDS011;69628;47.516;18.828;2023-05-07T03:53:36;5.60;;;3.80;;
80313;SDS011;69628;47.516;18.828;2023-05-07T03:54:36;6.07;;;3.83;;
80313;SDS011;69628;47.516;18.828;2023-05-07T03:55:37;8.63;;;3.92;;
80313;SDS011;69628;47.516;18.828;2023-05-07T03:59:00;6.05;;;3.70;;
80313;SDS011;69628;47.516;18.828;2023-05-07T04:00:01;8.85;;;3.58;;
80313;SDS011;69628;47.516;18.828;2023-05-07T04:01:03;5.50;;;3.65;;
80313;SDS011;69628;47.516;18.828;2023-05-07T04:02:04;6.35;;;3.80;;
80313;SDS011;69628;47.516;18.828;2023-05-07T04:03:04;6.47;;;4.05;;
80313;SDS011;69628;47.516;18.828;2023-05-07T04:04:05;5.18;;;3.60;;
80313;SDS011;69628;47.516;18.828;2023-05-07T04:05:05;6.55;;;3.65;;
80313;SDS011;69628;47.516;18.828;2023-05-07T04:08:30;11.20;;;3.90;;
80313;SDS011;69628;47.516;18.828;2023-05-07T04:09:31;6.22;;;3.60;;
80313;SDS011;69628;47.516;18.828;2023-05-07T04:10:37;6.93;;;3.88;;
80313;SDS011;69628;47.516;18.828;2023-05-07T04:11:37;6.13;;;3.70;;
80313;SDS011;69628;47.516;18.828;2023-05-07T04:12:40;7.97;;;3.90;;
80313;SDS011;69628;47.516;18.828;2023-05-07T04:13:40;7.03;;;3.80;;
80313;SDS011;69628;47.516;18.828;2023-05-07T04:14:40;9.48;;;4.25;;
80313;SDS011;69628;47.516;18.828;2023-05-07T04:15:41;5.65;;;3.58;;
80313;SDS011;69628;47.516;18.828;2023-05-07T04:16:41;7.25;;;3.83;;
80313;SDS011;69628;47.516;18.828;2023-05-07T04:17:42;5.45;;;3.65;;
80313;SDS011;69628;47.516;18.828;2023-05-07T04:18:42;8.55;;;4.05;;
80313;SDS011;69628;47.516;18.828;2023-05-07T04:19:42;7.90;;;3.58;;
80313;SDS011;69628;47.516;18.828;2023-05-07T04:20:45;6.97;;;3.95;;
80313;SDS011;69628;47.516;18.828;2023-05-07T04:21:45;7.15;;;4.20;;
80313;SDS011;69628;47.516;18.828;2023-05-07T04:22:46;10.13;;;3.80;;
80313;SDS011;69628;47.516;18.828;2023-05-07T04:23:55;7.97;;;3.30;;
80313;SDS011;69628;47.516;18.828;2023-05-07T04:24:56;6.43;;;3.60;;
80313;SDS011;69628;47.516;18.828;2023-05-07T04:25:56;7.25;;;3.60;;
80313;SDS011;69628;47.516;18.828;2023-05-07T04:26:57;5.78;;;3.60;;
80313;SDS011;69628;47.516;18.828;2023-05-07T04:27:58;8.32;;;3.67;;
80313;SDS011;69628;47.516;18.828;2023-05-07T04:28:59;6.53;;;3.70;;
80313;SDS011;69628;47.516;18.828;2023-05-07T04:30:00;7.63;;;3.95;;
80313;SDS011;69628;47.516;18.828;2023-05-07T04:31:00;7.30;;;3.50;;
80313;SDS011;69628;47.516;18.828;2023-05-07T04:32:01;6.97;;;3.55;;
80313;SDS011;69628;47.516;18.828;2023-05-07T04:33:01;5.97;;;3.72;;
80313;SDS011;69628;47.516;18.828;2023-05-07T04:34:02;4.85;;;3.30;;
80313;SDS011;69628;47.516;18.828;2023-05-07T04:35:02;5.10;;;3.30;;
80313;SDS011;69628;47.516;18.828;2023-05-07T04:36:03;5.25;;;3.25;;
80313;SDS011;69628;47.516;18.828;2023-05-07T04:37:10;4.15;;;3.00;;
80313;SDS011;69628;47.516;18.828;2023-05-07T04:38:15;5.13;;;3.50;;
80313;SDS011;69628;47.516;18.828;2023-05-07T04:39:16;4.00;;;3.10;;
80313;SDS011;69628;47.516;18.828;2023-05-07T04:40:16;6.13;;;3.15;;
80313;SDS011;69628;47.516;18.828;2023-05-07T04:41:17;4.88;;;3.15;;
80313;SDS011;69628;47.516;18.828;2023-05-07T04:42:17;4.82;;;3.33;;
80313;SDS011;69628;47.516;18.828;2023-05-07T04:43:18;6.47;;;3.50;;
80313;SDS011;69628;47.516;18.828;2023-05-07T04:44:18;6.95;;;3.58;;
80313;SDS011;69628;47.516;18.828;2023-05-07T04:45:19;5.22;;;3.60;;
80313;SDS011;69628;47.516;18.828;2023-05-07T04:46:20;4.80;;;3.55;;
80313;SDS011;69628;47.516;18.828;2023-05-07T04:47:20;6.55;;;3.72;;
80313;SDS011;69628;47.516;18.828;2023-05-07T04:48:20;6.43;;;3.78;;
80313;SDS011;69628;47.516;18.828;2023-05-07T04:49:21;5.57;;;3.55;;
80313;SDS011;69628;47.516;18.828;2023-05-07T04:50:27;5.13;;;3.78;;
80313;SDS011;69628;47.516;18.828;2023-05-07T04:51:28;4.40;;;3.28;;
80313;SDS011;69628;47.516;18.828;2023-05-07T04:52:28;5.93;;;4.03;;
80313;SDS011;69628;47.516;18.828;2023-05-07T04:53:28;5.43;;;3.75;;
80313;SDS011;69628;47.516;18.828;2023-05-07T04:54:29;7.13;;;4.60;;
80313;SDS011;69628;47.516;18.828;2023-05-07T04:55:29;6.53;;;4.35;;
80313;SDS011;69628;47.516;18.828;2023-05-07T04:56:30;8.48;;;4.30;;
80313;SDS011;69628;47.516;18.828;2023-05-07T04:57:30;5.80;;;4.40;;
80313;SDS011;69628;47.516;18.828;2023-05-07T04:58:31;7.28;;;4.28;;
80313;SDS011;69628;47.516;18.828;2023-05-07T04:59:32;6.40;;;4.22;;
80313;SDS011;69628;47.516;18.828;2023-05-07T05:00:32;5.82;;;4.40;;
80313;SDS011;69628;47.516;18.828;2023-05-07T05:01:33;7.90;;;5.15;;
80313;SDS011;69628;47.516;18.828;2023-05-07T05:02:33;6.97;;;4.68;;
80313;SDS011;69628;47.516;18.828;2023-05-07T05:03:43;6.40;;;5.00;;
80313;SDS011;69628;47.516;18.828;2023-05-07T05:04:43;8.25;;;4.63;;
80313;SDS011;69628;47.516;18.828;2023-05-07T05:05:44;6.55;;;4.57;;
80313;SDS011;69628;47.516;18.828;2023-05-07T05:06:45;8.90;;;4.80;;
80313;SDS011;69628;47.516;18.828;2023-05-07T05:07:45;7.43;;;4.60;;
80313;SDS011;69628;47.516;18.828;2023-05-07T05:08:45;7.30;;;4.53;;
80313;SDS011;69628;47.516;18.828;2023-05-07T05:09:46;8.88;;;4.88;;
80313;SDS011;69628;47.516;18.828;2023-05-07T05:10:46;9.68;;;5.05;;
80313;SDS011;69628;47.516;18.828;2023-05-07T05:11:48;9.57;;;5.63;;
80313;SDS011;69628;47.516;18.828;2023-05-07T05:12:49;9.48;;;6.05;;
80313;SDS011;69628;47.516;18.828;2023-05-07T05:13:49;7.93;;;6.00;;
80313;SDS011;69628;47.516;18.828;2023-05-07T05:14:50;9.15;;;6.38;;
80313;SDS011;69628;47.516;18.828;2023-05-07T05:15:50;10.27;;;6.10;;
80313;SDS011;69628;47.516;18.828;2023-05-07T05:16:59;10.73;;;6.00;;
80313;SDS011;69628;47.516;18.828;2023-05-07T05:18:00;9.20;;;6.53;;
80313;SDS011;69628;47.516;18.828;2023-05-07T05:19:01;10.02;;;6.70;;
80313;SDS011;69628;47.516;18.828;2023-05-07T05:20:02;12.15;;;6.50;;
80313;SDS011;69628;47.516;18.828;2023-05-07T05:21:03;7.80;;;6.03;;
80313;SDS011;69628;47.516;18.828;2023-05-07T05:23:07;9.40;;;6.53;;
80313;SDS011;69628;47.516;18.828;2023-05-07T05:24:08;9.23;;;6.75;;
80313;SDS011;69628;47.516;18.828;2023-05-07T05:25:08;10.13;;;7.28;;
80313;SDS011;69628;47.516;18.828;2023-05-07T05:27:45;12.95;;;8.65;;
80313;SDS011;69628;47.516;18.828;2023-05-07T05:28:45;10.68;;;7.85;;
80313;SDS011;69628;47.516;18.828;2023-05-07T05:29:46;12.82;;;8.27;;
80313;SDS011;69628;47.516;18.828;2023-05-07T05:30:46;11.45;;;7.72;;
80313;SDS011;69628;47.516;18.828;2023-05-07T05:31:47;13.23;;;8.80;;
80313;SDS011;69628;47.516;18.828;2023-05-07T05:32:47;13.15;;;8.15;;
80313;SDS011;69628;47.516;18.828;2023-05-07T05:33:48;12.13;;;8.27;;
80313;SDS011;69628;47.516;18.828;2023-05-07T05:34:48;13.82;;;9.35;;
80313;SDS011;69628;47.516;18.828;2023-05-07T05:35:49;12.77;;;9.00;;
80313;SDS011;69628;47.516;18.828;2023-05-07T05:36:49;11.65;;;8.00;;
80313;SDS011;69628;47.516;18.828;2023-05-07T05:37:50;13.35;;;8.50;;
80313;SDS011;69628;47.516;18.828;2023-05-07T05:38:50;13.85;;;8.98;;
80313;SDS011;69628;47.516;18.828;2023-05-07T05:39:51;11.55;;;9.02;;
80313;SDS011;69628;47.516;18.828;2023-05-07T05:41:00;12.18;;;8.02;;
80313;SDS011;69628;47.516;18.828;2023-05-07T05:42:00;13.32;;;8.68;;
80313;SDS011;69628;47.516;18.828;2023-05-07T05:43:01;11.43;;;8.68;;
80313;SDS011;69628;47.516;18.828;2023-05-07T05:44:01;12.35;;;8.43;;
80313;SDS011;69628;47.516;18.828;2023-05-07T05:45:02;11.50;;;8.57;;
80313;SDS011;69628;47.516;18.828;2023-05-07T05:46:02;12.25;;;8.77;;
80313;SDS011;69628;47.516;18.828;2023-05-07T05:47:04;13.25;;;9.50;;
80313;SDS011;69628;47.516;18.828;2023-05-07T05:48:04;11.10;;;8.32;;
80313;SDS011;69628;47.516;18.828;2023-05-07T05:49:05;11.52;;;8.60;;
80313;SDS011;69628;47.516;18.828;2023-05-07T05:50:06;12.82;;;8.45;;
80313;SDS011;69628;47.516;18.828;2023-05-07T05:51:07;13.70;;;8.20;;
80313;SDS011;69628;47.516;18.828;2023-05-07T05:52:07;11.43;;;8.45;;
80313;SDS011;69628;47.516;18.828;2023-05-07T05:53:07;16.77;;;8.55;;
80313;SDS011;69628;47.516;18.828;2023-05-07T05:54:08;13.55;;;8.90;;
80313;SDS011;69628;47.516;18.828;2023-05-07T05:55:08;12.88;;;8.82;;
80313;SDS011;69628;47.516;18.828;2023-05-07T05:56:09;11.95;;;8.88;;
80313;SDS011;69628;47.516;18.828;2023-05-07T05:57:09;13.65;;;9.13;;
80313;SDS011;69628;47.516;18.828;2023-05-07T05:58:10;11.55;;;8.38;;
80313;SDS011;69628;47.516;18.828;2023-05-07T05:59:10;11.90;;;8.95;;
80313;SDS011;69628;47.516;18.828;2023-05-07T06:00:11;10.77;;;8.70;;
80313;SDS011;69628;47.516;18.828;2023-05-07T06:01:11;13.75;;;9.35;;
80313;SDS011;69628;47.516;18.828;2023-05-07T06:02:12;14.23;;;8.57;;
80313;SDS011;69628;47.516;18.828;2023-05-07T06:03:12;14.38;;;9.68;;
80313;SDS011;69628;47.516;18.828;2023-05-07T06:04:13;14.55;;;9.52;;
80313;SDS011;69628;47.516;18.828;2023-05-07T06:05:13;12.77;;;9.23;;
80313;SDS011;69628;47.516;18.828;2023-05-07T06:06:14;12.07;;;9.18;;
80313;SDS011;69628;47.516;18.828;2023-05-07T06:07:14;15.20;;;8.85;;
80313;SDS011;69628;47.516;18.828;2023-05-07T06:08:15;13.52;;;9.07;;
80313;SDS011;69628;47.516;18.828;2023-05-07T06:09:15;14.20;;;8.30;;
80313;SDS011;69628;47.516;18.828;2023-05-07T06:10:15;11.07;;;8.13;;
80313;SDS011;69628;47.516;18.828;2023-05-07T06:11:16;11.95;;;8.68;;
80313;SDS011;69628;47.516;18.828;2023-05-07T06:12:16;11.52;;;7.93;;
80313;SDS011;69628;47.516;18.828;2023-05-07T06:13:17;12.38;;;8.32;;
80313;SDS011;69628;47.516;18.828;2023-05-07T06:14:17;12.20;;;7.90;;
80313;SDS011;69628;47.516;18.828;2023-05-07T06:15:17;14.18;;;8.60;;